createdAt,value
2019-04-05T00:01:56.428Z,88.13
2019-04-05T00:04:24.635Z,92.20
2019-04-05T00:06:52.834Z,95.20
2019-04-05T00:09:21.046Z,80.33
2019-04-05T00:11:49.534Z,82.77
2019-04-05T00:14:17.744Z,89.17
2019-04-05T00:16:46.657Z,85.03
2019-04-05T00:19:14.884Z,85.03
2019-04-05T00:21:43.088Z,97.10
2019-04-05T00:24:11.282Z,85.53
2019-04-05T00:26:39.504Z,79.50
2019-04-05T00:29:07.705Z,84.40
2019-04-05T00:31:35.914Z,90.53
2019-04-05T00:34:04.114Z,89.63
2019-04-05T00:36:32.335Z,82.30
2019-04-05T00:39:00.542Z,86.40
2019-04-05T00:41:28.740Z,86.27
2019-04-05T00:43:56.960Z,90.03
2019-04-05T00:46:25.159Z,91.33
2019-04-05T00:48:53.375Z,81.30
2019-04-05T00:51:21.644Z,93.13
2019-04-05T00:53:49.873Z,87.50
2019-04-05T00:56:18.077Z,88.50
2019-04-05T00:58:46.288Z,88.93
2019-04-05T01:01:14.510Z,84.03
2019-04-05T01:03:42.713Z,84.80
2019-04-05T01:06:10.923Z,88.80
2019-04-05T01:08:39.125Z,87.77
2019-04-05T01:11:07.345Z,90.23
2019-04-05T01:13:35.550Z,91.37
2019-04-05T01:16:03.778Z,91.57
2019-04-05T01:18:31.989Z,84.47
2019-04-05T01:21:02.439Z,89.83
2019-04-05T01:23:30.633Z,87.23
2019-04-05T01:25:58.916Z,87.73
2019-04-05T01:28:27.122Z,88.23
2019-04-05T01:30:55.338Z,84.70
2019-04-05T01:33:23.540Z,80.60
2019-04-05T01:35:51.826Z,91.67
2019-04-05T01:38:20.024Z,88.60
2019-04-05T01:40:48.236Z,92.80
2019-04-05T01:43:16.454Z,90.53
2019-04-05T01:45:53.725Z,90.63
2019-04-05T01:48:16.805Z,88.40
2019-04-05T01:50:45.016Z,90.47
2019-04-05T01:53:13.225Z,87.30
2019-04-05T01:55:41.452Z,93.53
2019-04-05T01:58:09.652Z,87.27
2019-04-05T02:00:37.882Z,88.57
2019-04-05T02:03:06.083Z,88.73
2019-04-05T02:05:34.305Z,89.73
2019-04-05T02:08:02.511Z,88.60
2019-04-05T02:10:30.734Z,93.07
2019-04-05T02:12:58.942Z,89.23
2019-04-05T02:15:28.384Z,88.53
2019-04-05T02:17:56.770Z,83.10
2019-04-05T02:20:24.975Z,91.20
2019-04-05T02:22:53.213Z,87.30
2019-04-05T02:25:21.415Z,87.47
2019-04-05T02:27:49.879Z,81.70
2019-04-05T02:30:19.710Z,78.17
2019-04-05T02:32:47.923Z,88.23
2019-04-05T02:35:16.129Z,94.53
2019-04-05T02:37:44.354Z,87.57
2019-04-05T02:40:14.867Z,93.57
2019-04-05T02:42:43.066Z,89.93
2019-04-05T02:45:11.263Z,87.17
2019-04-05T02:47:40.718Z,93.70
2019-04-05T02:50:08.919Z,91.87
2019-04-05T02:52:37.135Z,92.97
2019-04-05T02:55:05.402Z,85.47
2019-04-05T02:57:33.615Z,89.07
2019-04-05T03:00:01.959Z,86.03
2019-04-05T03:02:30.198Z,91.17
2019-04-05T03:04:58.404Z,83.73
2019-04-05T03:07:26.879Z,86.80
2019-04-05T03:09:55.241Z,86.70
2019-04-05T03:12:23.462Z,77.47
2019-04-05T03:14:51.665Z,85.57
2019-04-05T03:17:19.868Z,82.77
2019-04-05T03:19:48.070Z,82.77
2019-04-05T03:22:16.285Z,93.73
2019-04-05T03:24:44.658Z,82.70
2019-04-05T03:27:15.009Z,89.73
2019-04-05T03:29:43.213Z,89.83
2019-04-05T03:32:11.455Z,89.70
2019-04-05T03:34:39.866Z,88.50
2019-04-05T03:37:08.110Z,85.40
2019-04-05T03:39:36.380Z,92.63
2019-04-05T03:42:04.766Z,87.20
2019-04-05T03:44:32.965Z,92.67
2019-04-05T03:47:01.190Z,81.17
2019-04-05T03:49:29.396Z,88.80
2019-04-05T03:51:57.605Z,84.80
2019-04-05T03:54:25.868Z,82.07
2019-04-05T03:56:54.029Z,84.83
2019-04-05T03:59:22.239Z,79.50
2019-04-05T04:01:52.071Z,88.37
2019-04-05T04:04:20.290Z,88.90
2019-04-05T04:06:48.573Z,84.07
2019-04-05T04:09:16.808Z,90.33
2019-04-05T04:11:45.004Z,92.90
2019-04-05T04:14:13.486Z,84.47
2019-04-05T04:16:41.679Z,91.90
2019-04-05T04:19:09.901Z,90.33
2019-04-05T04:21:50.255Z,83.67
2019-04-05T04:24:18.739Z,87.83
2019-04-05T04:26:46.938Z,92.63
2019-04-05T04:29:15.161Z,82.63
2019-04-05T04:31:43.366Z,87.90
2019-04-05T04:34:11.590Z,85.73
2019-04-05T04:36:39.799Z,85.23
2019-04-05T04:39:08.021Z,90.03
2019-04-05T04:41:36.232Z,80.10
2019-04-05T04:44:04.439Z,85.00
2019-04-05T04:46:32.984Z,78.67
2019-04-05T04:49:01.203Z,94.60
2019-04-05T04:51:29.405Z,87.73
2019-04-05T04:53:57.618Z,91.50
2019-04-05T04:56:25.820Z,79.83
2019-04-05T04:58:54.030Z,93.93
2019-04-05T05:01:22.372Z,81.33
2019-04-05T05:03:50.586Z,82.50
2019-04-05T05:06:18.785Z,64.93
2019-04-05T05:08:47.017Z,73.23
2019-04-05T05:11:15.308Z,67.17
2019-04-05T05:13:43.495Z,63.90
2019-04-05T05:16:12.175Z,70.30
2019-04-05T05:18:40.385Z,80.57
2019-04-05T05:21:08.602Z,88.83
2019-04-05T05:23:36.808Z,93.17
2019-04-05T05:26:05.028Z,96.53
2019-04-05T05:28:33.236Z,89.77
2019-04-05T05:31:01.454Z,89.67
2019-04-05T05:33:29.652Z,93.17
2019-04-05T05:35:57.863Z,90.03
2019-04-05T05:38:26.063Z,93.37
2019-04-05T05:40:54.278Z,95.33
2019-04-05T05:43:23.996Z,83.23
2019-04-05T05:45:52.273Z,81.77
2019-04-05T05:48:20.483Z,86.23
2019-04-05T05:50:48.771Z,88.03
2019-04-05T05:53:16.969Z,81.90
2019-04-05T05:55:45.194Z,85.87
2019-04-05T05:58:13.394Z,86.87
2019-04-05T06:00:41.617Z,91.57
2019-04-05T06:03:12.031Z,86.17
2019-04-05T06:05:40.240Z,89.53
2019-04-05T06:08:08.449Z,84.53
2019-04-05T06:10:36.671Z,81.97
2019-04-05T06:13:07.214Z,88.13
2019-04-05T06:15:37.415Z,81.43
2019-04-05T06:18:05.211Z,93.83
2019-04-05T06:20:33.433Z,94.57
2019-04-05T06:23:01.638Z,88.10
2019-04-05T06:25:29.850Z,96.57
2019-04-05T06:27:59.770Z,89.27
2019-04-05T06:30:28.851Z,88.57
2019-04-05T06:32:57.246Z,94.27
2019-04-05T06:35:25.465Z,86.90
2019-04-05T06:37:53.671Z,90.33
2019-04-05T06:40:21.883Z,90.23
2019-04-05T06:42:50.097Z,85.50
2019-04-05T06:45:18.297Z,91.67
2019-04-05T06:47:46.524Z,93.17
2019-04-05T06:50:14.731Z,89.47
2019-04-05T06:52:42.952Z,89.93
2019-04-05T06:55:11.155Z,91.90
2019-04-05T06:57:39.365Z,87.17
2019-04-05T07:00:07.575Z,90.90
2019-04-05T07:02:35.788Z,85.43
2019-04-05T07:05:05.730Z,83.00
2019-04-05T07:07:33.943Z,91.40
2019-04-05T07:10:02.142Z,88.27
2019-04-05T07:12:30.592Z,78.47
2019-04-05T07:14:58.807Z,89.70
2019-04-05T07:17:27.006Z,86.10
2019-04-05T07:19:55.217Z,93.40
2019-04-05T07:22:36.910Z,85.10
2019-04-05T07:24:54.094Z,83.60
2019-04-05T07:27:22.288Z,90.03
2019-04-05T07:29:50.503Z,86.97
2019-04-05T07:32:18.705Z,84.40
2019-04-05T07:34:46.928Z,85.07
2019-04-05T07:37:15.121Z,86.47
2019-04-05T07:39:43.337Z,85.47
2019-04-05T07:42:11.536Z,88.30
2019-04-05T07:44:39.762Z,85.13
2019-04-05T07:47:07.969Z,78.40
2019-04-05T07:49:36.174Z,76.87
2019-04-05T07:52:04.386Z,87.87
2019-04-05T07:54:32.585Z,90.40
2019-04-05T07:57:00.803Z,80.90
2019-04-05T07:59:29.008Z,83.67
2019-04-05T08:01:57.231Z,86.43
2019-04-05T08:04:25.463Z,83.73
2019-04-05T08:06:53.890Z,88.93
2019-04-05T08:09:22.365Z,82.20
2019-04-05T08:11:50.819Z,80.33
2019-04-05T08:14:19.046Z,85.63
2019-04-05T08:16:47.270Z,89.13
2019-04-05T08:19:15.486Z,76.20
2019-04-05T08:21:43.719Z,72.17
2019-04-05T08:24:12.229Z,88.00
2019-04-05T08:26:40.684Z,78.13
2019-04-05T08:29:08.892Z,91.67
2019-04-05T08:31:37.137Z,84.07
2019-04-05T08:34:05.360Z,78.90
2019-04-05T08:36:33.562Z,90.30
2019-04-05T08:39:02.092Z,77.70
2019-04-05T08:41:31.832Z,79.73
2019-04-05T08:44:00.035Z,81.97
2019-04-05T08:46:28.256Z,87.13
2019-04-05T08:48:56.457Z,90.30
2019-04-05T08:51:24.730Z,86.73
2019-04-05T08:53:52.883Z,83.03
2019-04-05T08:56:21.093Z,86.53
2019-04-05T08:58:49.317Z,81.63
2019-04-05T09:01:17.527Z,89.07
2019-04-05T09:03:45.746Z,80.80
2019-04-05T09:06:13.952Z,81.57
2019-04-05T09:08:42.649Z,87.90
2019-04-05T09:11:10.849Z,83.10
2019-04-05T09:13:39.090Z,78.97
2019-04-05T09:16:07.292Z,84.47
2019-04-05T09:18:35.526Z,74.23
2019-04-05T09:21:03.726Z,78.10
2019-04-05T09:23:31.927Z,75.23
2019-04-05T09:26:00.148Z,88.97
2019-04-05T09:28:28.349Z,80.77
2019-04-05T09:30:56.568Z,82.70
2019-04-05T09:33:24.778Z,89.27
2019-04-05T09:35:52.998Z,85.40
2019-04-05T09:38:21.203Z,83.77
2019-04-05T09:40:49.425Z,56.27
2019-04-05T09:43:17.704Z,82.93
2019-04-05T09:45:47.543Z,82.40
2019-04-05T09:48:15.759Z,82.63
2019-04-05T09:50:44.972Z,67.93
2019-04-05T09:53:13.195Z,77.10
2019-04-05T09:55:41.402Z,85.53
2019-04-05T09:58:10.278Z,81.27
2019-04-05T10:00:39.079Z,79.63
2019-04-05T10:03:07.307Z,78.57
2019-04-05T10:05:35.518Z,72.83
2019-04-05T10:08:04.201Z,75.83
2019-04-05T10:10:32.413Z,78.10
2019-04-05T10:13:00.620Z,73.97
2019-04-05T10:15:28.840Z,80.63
2019-04-05T10:17:57.046Z,75.40
2019-04-05T10:20:25.345Z,76.70
2019-04-05T10:22:53.555Z,73.93
2019-04-05T10:25:21.782Z,65.90
2019-04-05T10:27:49.989Z,77.67
2019-04-05T10:30:18.218Z,76.23
2019-04-05T10:32:46.559Z,79.30
2019-04-05T10:35:14.729Z,77.97
2019-04-05T10:37:42.942Z,73.17
2019-04-05T10:40:11.141Z,70.80
2019-04-05T10:42:40.732Z,73.13
2019-04-05T10:45:09.880Z,75.73
2019-04-05T10:47:38.098Z,69.90
2019-04-05T10:50:07.946Z,61.03
2019-04-05T10:52:36.239Z,67.77
2019-04-05T10:55:04.780Z,69.40
2019-04-05T10:57:32.998Z,69.63
2019-04-05T11:00:01.198Z,63.40
2019-04-05T11:02:29.415Z,68.80
2019-04-05T11:04:57.624Z,57.90
2019-04-05T11:07:25.834Z,63.70
2019-04-05T11:09:54.055Z,53.03
2019-04-05T11:12:22.261Z,67.07
2019-04-05T11:14:50.480Z,54.00
2019-04-05T11:17:18.689Z,62.17
2019-04-05T11:19:48.369Z,61.00
2019-04-05T11:22:20.094Z,64.80
2019-04-05T11:24:46.509Z,64.20
2019-04-05T11:27:14.712Z,63.37
2019-04-05T11:29:42.935Z,65.93
2019-04-05T11:32:11.137Z,61.90
2019-04-05T11:34:39.365Z,67.43
2019-04-05T11:37:07.572Z,68.83
2019-04-05T11:39:35.791Z,66.27
2019-04-05T11:42:04.010Z,73.33
2019-04-05T11:44:32.392Z,69.43
2019-04-05T11:47:00.599Z,66.30
2019-04-05T11:49:28.832Z,65.40
2019-04-05T11:51:57.030Z,69.70
2019-04-05T11:54:25.248Z,62.67
2019-04-05T11:56:53.450Z,63.43
2019-04-05T11:59:21.671Z,60.70
2019-04-05T12:01:54.460Z,66.73
2019-04-05T12:04:22.680Z,65.67
2019-04-05T12:06:52.122Z,63.10
2019-04-05T12:09:20.784Z,64.87
2019-04-05T12:11:48.998Z,57.70
2019-04-05T12:14:29.608Z,56.77
2019-04-05T12:16:47.132Z,59.37
2019-04-05T12:19:15.352Z,55.00
2019-04-05T12:21:43.554Z,58.57
2019-04-05T12:24:11.784Z,66.20
2019-04-05T12:26:42.555Z,59.83
2019-04-05T12:29:09.924Z,64.50
2019-04-05T12:31:38.161Z,59.27
2019-04-05T12:34:06.368Z,56.93
2019-04-05T12:36:34.600Z,62.43
2019-04-05T12:39:04.745Z,63.07
2019-04-05T12:41:32.733Z,59.67
2019-04-05T12:44:00.939Z,61.53
2019-04-05T12:46:30.802Z,62.43
2019-04-05T12:48:59.000Z,53.67
2019-04-05T12:51:27.219Z,66.50
2019-04-05T12:53:56.859Z,57.27
2019-04-05T12:56:26.565Z,63.43
2019-04-05T12:58:56.060Z,62.83
2019-04-05T13:01:24.852Z,55.57
2019-04-05T13:03:54.452Z,65.87
2019-04-05T13:06:23.721Z,60.67
2019-04-05T13:08:53.755Z,54.63
2019-04-05T13:11:25.889Z,55.50
2019-04-05T13:13:51.816Z,59.10
2019-04-05T13:16:20.026Z,59.43
2019-04-05T13:18:48.251Z,58.13
2019-04-05T13:21:16.455Z,51.53
2019-04-05T13:23:45.140Z,48.50
2019-04-05T13:26:13.378Z,58.53
2019-04-05T13:28:41.571Z,58.50
2019-04-05T13:31:09.782Z,54.63
2019-04-05T13:33:38.006Z,50.17
2019-04-05T13:36:08.464Z,58.07
2019-04-05T13:38:36.172Z,64.47
2019-04-05T13:41:04.380Z,61.17
2019-04-05T13:43:32.800Z,58.80
2019-04-05T13:46:00.984Z,56.00
2019-04-05T13:48:29.232Z,57.63
2019-04-05T13:50:57.441Z,61.27
2019-04-05T13:53:25.665Z,53.37
2019-04-05T13:55:53.867Z,52.37
2019-04-05T13:58:22.085Z,53.33
2019-04-05T14:00:50.307Z,61.40
2019-04-05T14:03:20.440Z,53.40
2019-04-05T14:05:49.987Z,63.13
2019-04-05T14:08:18.811Z,59.10
2019-04-05T14:10:47.024Z,52.60
2019-04-05T14:13:15.246Z,61.10
2019-04-05T14:15:43.454Z,52.63
2019-04-05T14:18:14.514Z,57.73
2019-04-05T14:20:41.599Z,51.47
2019-04-05T14:23:09.821Z,56.23
2019-04-05T14:25:38.027Z,56.20
2019-04-05T14:28:06.247Z,56.73
2019-04-05T14:30:34.456Z,61.55
2019-04-05T14:33:02.943Z,55.80
2019-04-05T14:35:31.152Z,55.00
2019-04-05T14:38:00.839Z,55.40
2019-04-05T14:40:32.837Z,61.05
2019-04-05T14:42:58.986Z,56.42
2019-04-05T14:45:27.195Z,59.67
2019-04-05T14:47:57.619Z,56.50
2019-04-05T14:50:25.352Z,61.40
2019-04-05T14:52:53.558Z,61.80
2019-04-05T14:55:21.769Z,60.77
2019-04-05T14:57:49.994Z,58.15
2019-04-05T15:00:18.275Z,62.03
2019-04-05T15:02:46.484Z,56.80
2019-04-05T15:05:14.701Z,55.20
2019-04-05T15:07:42.917Z,58.75
2019-04-05T15:10:11.135Z,54.83
2019-04-05T15:12:39.344Z,56.57
2019-04-05T15:15:07.842Z,51.15
2019-04-05T15:17:47.297Z,59.60
2019-04-05T15:20:08.651Z,58.10
2019-04-05T15:22:37.331Z,60.50
2019-04-05T15:25:06.626Z,60.00
2019-04-05T15:27:34.837Z,60.90
2019-04-05T15:30:03.096Z,57.97
2019-04-05T15:32:32.744Z,55.30
2019-04-05T15:35:02.090Z,67.22
2019-04-05T15:37:32.483Z,59.57
2019-04-05T15:40:01.885Z,55.40
2019-04-05T15:42:30.083Z,54.50
2019-04-05T15:44:58.308Z,57.43
2019-04-05T15:47:26.834Z,61.70
2019-04-05T15:49:55.059Z,53.40
2019-04-05T15:52:23.261Z,57.50
2019-04-05T15:54:51.478Z,59.30
2019-04-05T15:57:19.690Z,61.00
2019-04-05T15:59:48.663Z,58.20
2019-04-05T16:02:17.314Z,61.63
2019-04-05T16:04:45.534Z,64.00
2019-04-05T16:07:13.739Z,54.30
2019-04-05T16:09:41.970Z,58.25
2019-04-05T16:12:10.182Z,60.98
2019-04-05T16:14:38.401Z,58.23
2019-04-05T16:17:06.610Z,67.43
2019-04-05T16:19:34.833Z,56.33
2019-04-05T16:22:03.294Z,61.43
2019-04-05T16:24:31.515Z,64.32
2019-04-05T16:26:59.719Z,60.17
2019-04-05T16:29:27.940Z,58.67
2019-04-05T16:31:56.148Z,59.90
2019-04-05T16:34:24.364Z,53.40
2019-04-05T16:36:52.561Z,60.57
2019-04-05T16:39:20.787Z,64.67
2019-04-05T16:41:48.973Z,66.30
2019-04-05T16:44:17.185Z,62.20
2019-04-05T16:46:45.387Z,68.87
2019-04-05T16:49:14.265Z,60.50
2019-04-05T16:51:42.471Z,65.03
2019-04-05T16:54:10.691Z,57.65
2019-04-05T16:56:38.904Z,54.67
2019-04-05T16:59:07.208Z,57.67
2019-04-05T17:01:35.420Z,61.20
2019-04-05T17:04:03.903Z,59.97
2019-04-05T17:06:32.105Z,63.03
2019-04-05T17:09:00.310Z,61.67
2019-04-05T17:11:28.536Z,65.50
2019-04-05T17:13:59.383Z,67.00
2019-04-05T17:16:26.691Z,58.60
2019-04-05T17:18:56.125Z,62.17
2019-04-05T17:21:25.979Z,55.33
2019-04-05T17:23:54.192Z,71.50
2019-04-05T17:26:22.412Z,70.30
2019-04-05T17:28:50.623Z,71.37
2019-04-05T17:31:18.838Z,66.17
2019-04-05T17:33:47.055Z,71.30
2019-04-05T17:36:15.275Z,64.77
2019-04-05T17:38:43.484Z,65.23
2019-04-05T17:41:11.708Z,63.20
2019-04-05T17:43:39.919Z,66.07
2019-04-05T17:46:09.614Z,58.60
2019-04-05T17:48:37.823Z,66.53
2019-04-05T17:51:06.031Z,70.73
2019-04-05T17:53:34.253Z,62.40
2019-04-05T17:56:02.467Z,63.97
2019-04-05T17:58:31.172Z,68.30
2019-04-05T18:00:59.379Z,65.60
2019-04-05T18:03:27.594Z,75.57
2019-04-05T18:05:55.808Z,65.40
2019-04-05T18:08:24.014Z,59.43
2019-04-05T18:10:52.231Z,71.20
2019-04-05T18:13:20.447Z,64.20
2019-04-05T18:15:52.661Z,66.80
2019-04-05T18:18:18.614Z,77.40
2019-04-05T18:20:46.838Z,71.43
2019-04-05T18:23:24.884Z,73.00
2019-04-05T18:25:44.991Z,72.33
2019-04-05T18:28:13.201Z,70.43
2019-04-05T18:30:42.390Z,67.07
2019-04-05T18:33:10.598Z,73.27
2019-04-05T18:35:38.812Z,68.23
2019-04-05T18:38:07.031Z,73.83
2019-04-05T18:40:40.201Z,66.93
2019-04-05T18:43:05.183Z,71.13
2019-04-05T18:45:33.739Z,71.83
2019-04-05T18:48:01.998Z,72.60
2019-04-05T18:50:30.205Z,78.30
2019-04-05T18:52:58.428Z,70.10
2019-04-05T18:55:26.643Z,74.10
2019-04-05T18:57:54.856Z,80.70
2019-04-05T19:00:23.060Z,80.23
2019-04-05T19:02:51.520Z,76.77
2019-04-05T19:05:19.734Z,74.30
2019-04-05T19:07:47.938Z,76.30
2019-04-05T19:10:16.162Z,70.50
2019-04-05T19:12:44.474Z,71.33
2019-04-05T19:15:12.759Z,71.87
2019-04-05T19:17:40.961Z,70.23
2019-04-05T19:20:09.182Z,73.97
2019-04-05T19:22:37.394Z,67.73
2019-04-05T19:25:07.052Z,72.53
2019-04-05T19:27:35.255Z,74.37
2019-04-05T19:50:06.781Z,75.17
2019-04-05T19:52:34.999Z,67.80
2019-04-05T19:55:03.211Z,76.53
2019-04-05T19:57:31.481Z,81.20
2019-04-05T19:59:59.641Z,76.43
2019-04-05T20:02:27.856Z,76.37
2019-04-05T20:04:56.060Z,88.10
2019-04-05T20:07:24.278Z,79.10
2019-04-05T20:09:52.481Z,83.67
2019-04-05T20:12:20.707Z,81.60
2019-04-05T20:14:48.910Z,93.60
2019-04-05T20:17:17.110Z,99.07
2019-04-05T20:19:45.324Z,86.97
2019-04-05T20:22:13.607Z,96.00
2019-04-05T20:24:41.835Z,100.37
2019-04-05T20:27:10.877Z,111.17
2019-04-05T20:29:39.090Z,116.77
2019-04-05T20:32:07.291Z,120.20
2019-04-05T20:34:35.512Z,117.27
2019-04-05T20:37:03.717Z,124.20
2019-04-05T20:39:32.171Z,121.73
2019-04-05T20:42:00.383Z,136.43
2019-04-05T20:44:28.591Z,131.97
2019-04-05T20:46:56.810Z,130.23
2019-04-05T20:49:25.021Z,138.23
2019-04-05T20:51:53.256Z,139.67
2019-04-05T20:54:24.786Z,123.90
2019-04-05T20:56:51.406Z,139.97
2019-04-05T20:59:19.617Z,137.23
2019-04-05T21:01:47.830Z,142.30
2019-04-05T21:04:16.067Z,145.03
2019-04-05T21:06:44.289Z,144.40
2019-04-05T21:09:12.571Z,134.53
2019-04-05T21:11:40.822Z,146.13
2019-04-05T21:14:08.992Z,143.90
2019-04-05T21:16:37.196Z,160.27
2019-04-05T21:19:05.427Z,151.83
2019-04-05T21:21:33.629Z,139.07
2019-04-05T21:24:01.853Z,142.73
2019-04-05T21:26:30.066Z,134.33
2019-04-05T21:28:58.275Z,140.97
2019-04-05T21:31:26.491Z,131.60
2019-04-05T21:33:54.699Z,145.40
2019-04-05T21:36:22.915Z,140.80
2019-04-05T21:38:51.129Z,146.93
2019-04-05T21:41:19.362Z,156.37
2019-04-05T21:43:47.571Z,157.23
2019-04-05T21:46:15.788Z,157.50
2019-04-05T21:48:45.610Z,151.50
2019-04-05T21:51:13.831Z,147.93
2019-04-05T21:53:42.040Z,147.17
2019-04-05T21:56:10.276Z,138.80
2019-04-05T21:58:38.487Z,129.13
2019-04-05T22:01:08.420Z,137.13
2019-04-05T22:03:36.632Z,134.53
2019-04-05T22:06:05.010Z,131.90
2019-04-05T22:08:33.233Z,143.23
2019-04-05T22:11:02.606Z,149.03
2019-04-05T22:13:30.830Z,150.90
2019-04-05T22:15:59.030Z,172.17
2019-04-05T22:18:27.321Z,164.77
2019-04-05T22:20:55.521Z,162.63
2019-04-05T22:23:23.738Z,163.87
2019-04-05T22:25:51.938Z,165.23
2019-04-05T22:28:20.147Z,158.43
2019-04-05T22:30:48.363Z,170.97
2019-04-05T22:33:16.568Z,160.13
2019-04-05T22:35:44.801Z,164.27
2019-04-05T22:38:13.002Z,166.13
2019-04-05T22:40:41.217Z,166.73
2019-04-05T22:43:09.427Z,163.73
2019-04-05T22:45:37.645Z,166.47
2019-04-05T22:48:05.856Z,159.10
2019-04-05T22:50:34.074Z,167.33
2019-04-05T22:53:02.275Z,156.67
2019-04-05T22:55:30.504Z,152.53
2019-04-05T22:57:58.706Z,153.70
2019-04-05T23:00:26.924Z,168.40
2019-04-05T23:02:55.143Z,164.00
2019-04-05T23:05:23.356Z,166.57
2019-04-05T23:07:51.568Z,151.83
2019-04-05T23:10:19.776Z,150.57
2019-04-05T23:12:48.012Z,148.13
2019-04-05T23:15:16.214Z,144.97
2019-04-05T23:17:44.432Z,142.87
2019-04-05T23:20:12.640Z,136.37
2019-04-05T23:22:40.866Z,141.77
2019-04-05T23:25:09.079Z,139.23
2019-04-05T23:27:37.313Z,138.70
2019-04-05T23:30:09.067Z,128.47
2019-04-05T23:32:37.535Z,133.00
2019-04-05T23:35:06.618Z,132.50
2019-04-05T23:37:34.826Z,123.27
2019-04-05T23:40:03.325Z,128.47
2019-04-05T23:42:31.529Z,114.17
2019-04-05T23:44:59.736Z,123.97
2019-04-05T23:47:27.978Z,121.33
2019-04-05T23:49:56.161Z,119.53
2019-04-05T23:52:24.551Z,119.70
2019-04-05T23:54:52.758Z,118.30
2019-04-05T23:57:20.985Z,120.87
2019-04-05T23:59:49.903Z,114.73
